Time;durP1;ratioP1;P1;durP2;ratioP2;P2;SDS_P1;SDS_P2;PMS_P1;PMS_P2;Temp;Humidity;BMP_temperature;BMP_pressure;BME280_temperature;BME280_humidity;BME280_pressure;Samples;Min_cycle;Max_cycle;Signal;HPM_P1;HPM_P2
2022/11/15 00:00:52;;;;;;;21.38;19.48;;;;;;;9.89;59.74;100700.44;5034641;28;20042;-72
2022/11/15 00:03:20;;;;;;;22.42;20.35;;;;;;;9.89;59.86;100705.84;5047850;28;20039;-72
2022/11/15 00:05:46;;;;;;;23.45;21.48;;;;;;;9.90;59.49;100698.56;5034932;28;20528;-72
2022/11/15 00:08:11;;;;;;;21.77;19.65;;;;;;;9.90;59.67;100707.50;5049027;28;20037;-72
2022/11/15 00:10:37;;;;;;;22.40;20.48;;;;;;;9.91;59.74;100703.72;5038412;28;20549;-72
2022/11/15 00:13:13;;;;;;;21.80;20.00;;;;;;;9.92;59.94;100704.53;5034673;28;20037;-72
2022/11/15 00:15:39;;;;;;;23.08;21.40;;;;;;;9.92;60.06;100696.44;5034939;28;20049;-72
2022/11/15 00:18:10;;;;;;;23.48;21.38;;;;;;;9.93;59.73;100692.72;5044663;28;20068;-72
2022/11/15 00:20:36;;;;;;;20.92;19.52;;;;;;;9.94;59.66;100692.47;5034856;28;20026;-71
2022/11/15 00:23:03;;;;;;;24.27;21.70;;;;;;;9.94;59.80;100692.47;5035170;28;20091;-72
2022/11/15 00:25:29;;;;;;;23.88;21.65;;;;;;;9.94;59.85;100689.75;5052681;28;20033;-72
2022/11/15 00:27:59;;;;;;;24.67;22.75;;;;;;;9.95;59.89;100690.56;5040106;28;20431;-72
2022/11/15 00:30:25;;;;;;;20.80;19.05;;;;;;;9.95;59.90;100685.16;5043913;28;20057;-72
2022/11/15 00:32:50;;;;;;;20.25;18.75;;;;;;;9.96;59.85;100682.25;5061228;28;20040;-74
2022/11/15 00:35:16;;;;;;;21.80;20.17;;;;;;;9.97;59.77;100678.47;5057116;28;20029;-72
2022/11/15 00:37:41;;;;;;;23.40;20.70;;;;;;;9.97;59.93;100680.38;5042048;28;20029;-71
2022/11/15 00:40:08;;;;;;;24.10;21.67;;;;;;;9.96;59.63;100679.53;5046049;28;20064;-72
2022/11/15 00:42:33;;;;;;;20.27;18.27;;;;;;;9.99;60.02;100678.25;5042377;28;20066;-72
2022/11/15 00:44:58;;;;;;;22.85;20.90;;;;;;;10.00;59.85;100682.56;5051914;28;20029;-72
2022/11/15 00:47:24;;;;;;;21.95;19.92;;;;;;;10.01;59.88;100680.72;5036844;28;20495;-72
2022/11/15 00:49:49;;;;;;;20.75;19.05;;;;;;;10.01;59.78;100673.44;5046590;28;20037;-72
2022/11/15 00:52:14;;;;;;;20.42;18.75;;;;;;;10.01;60.02;100673.44;5057839;28;20044;-73
2022/11/15 00:54:40;;;;;;;20.83;19.13;;;;;;;10.02;59.86;100672.38;5050991;28;20025;-71
2022/11/15 00:57:05;;;;;;;24.52;22.40;;;;;;;10.02;59.81;100666.97;5046565;28;20521;-71
2022/11/15 00:59:30;;;;;;;21.98;20.30;;;;;;;10.02;59.92;100664.28;5023219;28;20493;-71
2022/11/15 01:01:56;;;;;;;22.02;20.10;;;;;;;10.05;60.20;100665.66;5039836;28;20371;-73
2022/11/15 01:04:21;;;;;;;21.60;19.83;;;;;;;10.06;60.19;100670.03;5047190;28;20029;-71
2022/11/15 01:06:46;;;;;;;23.02;20.95;;;;;;;10.05;60.05;100662.97;5048972;28;20038;-74
2022/11/15 01:09:13;;;;;;;23.48;21.35;;;;;;;10.06;60.10;100673.53;5045469;28;20038;-71
2022/11/15 01:11:39;;;;;;;22.05;20.00;;;;;;;10.06;60.14;100667.31;5039298;28;20046;-71
2022/11/15 01:14:04;;;;;;;22.20;20.40;;;;;;;10.08;59.93;100670.56;5046785;28;20041;-71
2022/11/15 01:16:30;;;;;;;21.95;20.10;;;;;;;10.07;60.24;100666.25;5041186;28;20533;-71
2022/11/15 01:18:55;;;;;;;23.67;21.48;;;;;;;10.08;60.14;100666.03;5038952;28;20029;-73
2022/11/15 01:21:20;;;;;;;23.77;21.67;;;;;;;10.09;59.99;100667.66;5043873;28;20121;-71
2022/11/15 01:23:46;;;;;;;22.55;20.77;;;;;;;10.09;60.16;100664.94;5044454;28;20028;-71
2022/11/15 01:26:14;;;;;;;22.92;20.83;;;;;;;10.09;60.13;100667.66;5047774;28;20095;-70
2022/11/15 01:28:41;;;;;;;22.45;20.25;;;;;;;10.11;60.15;100662.84;5036114;28;20029;-70
2022/11/15 01:31:12;;;;;;;23.42;21.35;;;;;;;10.12;60.06;100672.56;5047096;28;20087;-71
2022/11/15 01:33:37;;;;;;;22.90;20.90;;;;;;;10.13;60.05;100657.19;5041111;28;20022;-71
2022/11/15 01:36:12;;;;;;;22.85;20.90;;;;;;;10.14;60.10;100664.22;5049523;28;20104;-71
2022/11/15 01:38:38;;;;;;;21.98;19.83;;;;;;;10.15;60.20;100660.47;5046273;28;20040;-73
2022/11/15 01:41:03;;;;;;;23.33;21.42;;;;;;;10.16;60.32;100656.72;5064047;28;20037;-73
2022/11/15 01:43:32;;;;;;;21.77;19.88;;;;;;;10.17;59.95;100652.94;5046607;28;20461;-73
2022/11/15 01:46:03;;;;;;;;;;;;;;;10.17;59.94;100648.34;5041783;28;20120;-71
2022/11/15 01:48:33;;;;;;;22.17;20.15;;;;;;;10.17;60.08;100642.97;5040019;28;19921;-71
2022/11/15 01:51:02;;;;;;;22.50;20.70;;;;;;;10.17;60.32;100637.56;5046810;28;20389;-71
2022/11/15 01:53:29;;;;;;;22.08;20.25;;;;;;;10.19;60.05;100640.84;5047174;28;20053;-71
2022/11/15 01:55:55;;;;;;;21.05;19.35;;;;;;;10.21;60.12;100643.31;5037908;28;20032;-71
2022/11/15 01:58:21;;;;;;;23.88;21.98;;;;;;;10.23;60.04;100640.34;5047524;28;20520;-71
2022/11/15 02:00:49;;;;;;;22.60;20.70;;;;;;;10.24;60.15;100632.03;5046970;28;20104;-71
2022/11/15 02:03:15;;;;;;;22.77;20.98;;;;;;;10.25;60.18;100630.13;5042095;28;20125;-72
2022/11/15 02:05:41;;;;;;;22.00;20.10;;;;;;;10.26;60.24;100629.91;5038072;28;20453;-71
2022/11/15 02:08:08;;;;;;;25.08;22.90;;;;;;;10.26;60.17;100619.09;5041359;28;20048;-72
2022/11/15 02:10:33;;;;;;;24.00;21.92;;;;;;;10.28;60.05;100616.16;5042143;28;20029;-71
2022/11/15 02:13:00;;;;;;;22.33;20.48;;;;;;;10.29;60.12;100621.34;5046348;28;20496;-72
2022/11/15 02:15:35;;;;;;;23.38;21.58;;;;;;;10.30;60.51;100612.16;5063305;28;20033;-71
2022/11/15 02:18:18;;;;;;;22.65;20.48;;;;;;;10.31;60.32;100611.13;5048330;28;20052;-71
2022/11/15 02:20:59;;;;;;;22.30;20.38;;;;;;;10.32;60.39;100618.16;5047423;28;20037;-71
2022/11/15 02:24:08;;;;;;;22.20;20.38;;;;;;;10.34;60.32;100617.91;5049618;28;20547;-71
2022/11/15 02:27:07;;;;;;;24.02;22.30;;;;;;;10.34;60.36;100610.63;5032490;28;20033;-72
2022/11/15 02:30:10;;;;;;;21.77;20.17;;;;;;;10.35;60.25;100612.25;5044932;28;20116;-71
2022/11/15 02:32:39;;;;;;;21.95;20.23;;;;;;;10.36;60.21;100602.28;5031764;28;20037;-72
2022/11/15 02:35:43;;;;;;;23.17;21.17;;;;;;;10.37;60.36;100603.91;5050744;28;20527;-72
2022/11/15 02:38:14;;;;;;;22.33;20.40;;;;;;;10.38;60.26;100605.53;5041525;28;20040;-71
2022/11/15 02:41:11;;;;;;;24.08;21.70;;;;;;;10.38;60.24;100598.28;5047139;28;20061;-71
2022/11/15 02:43:58;;;;;;;23.73;21.75;;;;;;;10.40;60.10;100596.13;5050048;28;20128;-72
2022/11/15 02:47:13;;;;;;;23.00;21.02;;;;;;;10.41;60.51;100602.38;5038619;28;20109;-72
2022/11/15 02:49:50;;;;;;;21.73;20.02;;;;;;;10.42;60.31;100592.38;5017357;28;20090;-73
2022/11/15 02:52:18;;;;;;;24.45;22.65;;;;;;;10.43;60.46;100586.72;5039473;28;20044;-73
2022/11/15 02:55:00;;;;;;;22.02;20.25;;;;;;;10.45;60.39;100590.00;5051358;28;20029;-73
2022/11/15 02:57:56;;;;;;;24.25;22.35;;;;;;;10.47;60.63;100584.38;5046063;28;20033;-72
2022/11/15 03:00:22;;;;;;;22.08;20.35;;;;;;;10.48;60.63;100586.00;5041719;28;20532;-71
2022/11/15 03:02:56;;;;;;;22.08;20.38;;;;;;;10.50;60.25;100581.19;5031558;28;20125;-72
2022/11/15 03:05:35;;;;;;;23.10;21.02;;;;;;;10.50;60.84;100576.59;5044206;28;20112;-71
2022/11/15 03:08:09;;;;;;;21.27;19.67;;;;;;;10.52;60.55;100584.44;5047680;28;20125;-73
2022/11/15 03:11:01;;;;;;;21.85;20.25;;;;;;;10.53;60.59;100586.06;5043238;28;20455;-73
2022/11/15 03:13:26;;;;;;;23.58;21.63;;;;;;;10.54;60.44;100583.13;5039478;28;20060;-72
2022/11/15 03:16:04;;;;;;;22.75;21.05;;;;;;;10.56;60.54;100591.81;5052565;28;20068;-73
2022/11/15 03:18:35;;;;;;;21.38;19.73;;;;;;;10.57;60.49;100579.13;5042289;28;20492;-73
2022/11/15 03:21:04;;;;;;;23.42;21.65;;;;;;;10.59;60.51;100590.50;5043984;28;20045;-73
2022/11/15 03:23:31;;;;;;;22.48;20.50;;;;;;;10.60;60.66;100584.03;5050927;28;20093;-75
2022/11/15 03:25:59;;;;;;;20.92;19.48;;;;;;;10.61;60.52;100581.09;5049490;28;20536;-74
2022/11/15 03:29:06;;;;;;;24.98;22.90;;;;;;;10.63;60.57;100585.41;5038623;28;20025;-73
2022/11/15 03:31:48;;;;;;;21.98;20.33;;;;;;;10.63;60.61;100583.53;5036793;28;20117;-73
2022/11/15 03:34:27;;;;;;;23.10;21.13;;;;;;;10.65;60.61;100581.41;5052460;28;20111;-73
2022/11/15 03:36:53;;;;;;;22.75;20.88;;;;;;;10.65;60.57;100573.31;5044904;28;20131;-73
2022/11/15 03:39:20;;;;;;;23.90;21.70;;;;;;;10.68;60.66;100578.19;5042012;28;20064;-73
2022/11/15 03:41:54;;;;;;;25.52;23.80;;;;;;;10.71;60.56;100572.34;5041542;28;20029;-73
2022/11/15 03:44:46;;;;;;;26.15;23.63;;;;;;;10.71;60.65;100577.72;5049017;28;20478;-73
2022/11/15 03:47:21;;;;;;;22.67;20.55;;;;;;;10.71;60.69;100569.63;5043826;28;20026;-75
2022/11/15 03:49:52;;;;;;;22.23;20.33;;;;;;;10.74;60.74;100579.13;5049308;28;20117;-73
2022/11/15 03:52:19;;;;;;;23.20;21.27;;;;;;;10.74;60.67;100571.03;5052238;28;20033;-71
2022/11/15 03:54:51;;;;;;;23.40;21.33;;;;;;;10.76;60.70;100577.81;5053492;28;20029;-71
2022/11/15 03:57:17;;;;;;;21.95;20.38;;;;;;;10.77;60.73;100579.44;5052958;28;20029;-71
2022/11/15 03:59:42;;;;;;;21.48;19.75;;;;;;;10.79;60.49;100584.59;5049654;28;20040;-74
2022/11/15 04:02:07;;;;;;;23.70;21.70;;;;;;;10.81;60.57;100585.19;5051278;28;20444;-72
2022/11/15 04:04:33;;;;;;;22.15;20.30;;;;;;;10.81;60.71;100586.00;5048514;28;20048;-74
2022/11/15 04:06:58;;;;;;;22.15;20.27;;;;;;;10.82;60.54;100582.22;5050970;28;20045;-73
2022/11/15 04:09:23;;;;;;;23.60;21.70;;;;;;;10.85;60.66;100582.78;5035775;28;20119;-72
2022/11/15 04:11:49;;;;;;;21.80;20.27;;;;;;;10.85;60.75;100583.59;5053457;28;21778;-73
2022/11/15 04:14:14;;;;;;;22.38;20.58;;;;;;;10.86;60.88;100576.31;5051355;28;20385;-75
2022/11/15 04:16:39;;;;;;;23.23;21.38;;;;;;;10.87;60.73;100580.66;5053370;28;20059;-73
2022/11/15 04:24:33;;;;;;;23.88;21.92;;;;;;;10.90;60.87;100580.16;5042585;28;20083;-71
2022/11/15 04:26:59;;;;;;;22.38;20.67;;;;;;;10.90;60.77;100577.44;5049156;28;20044;-71
2022/11/15 04:29:36;;;;;;;26.48;24.10;;;;;;;10.92;60.67;100584.25;5061174;28;20029;-72
2022/11/15 04:32:06;;;;;;;22.48;20.73;;;;;;;10.92;60.74;100581.53;5050198;28;20053;-71
2022/11/15 04:34:32;;;;;;;23.13;21.38;;;;;;;10.93;60.74;100575.06;5046082;28;20395;-72
2022/11/15 04:37:13;;;;;;;24.08;22.27;;;;;;;10.95;60.76;100588.34;5034300;28;20457;-71
2022/11/15 04:39:40;;;;;;;22.88;21.15;;;;;;;10.95;60.87;100585.63;5058615;28;20562;-71
2022/11/15 04:42:05;;;;;;;22.17;20.65;;;;;;;10.96;60.79;100579.97;5039083;28;20038;-71
2022/11/15 04:44:31;;;;;;;24.80;22.77;;;;;;;10.97;60.77;100589.72;5045998;28;20030;-71
2022/11/15 04:46:56;;;;;;;22.98;21.17;;;;;;;10.99;60.78;100589.47;5043795;28;20040;-71
2022/11/15 04:49:22;;;;;;;22.98;21.35;;;;;;;10.99;60.70;100581.38;5048155;28;20055;-72
2022/11/15 04:51:47;;;;;;;21.90;20.20;;;;;;;11.01;60.76;100577.34;5046660;28;20063;-73
2022/11/15 04:54:13;;;;;;;24.13;21.88;;;;;;;11.02;60.78;100578.97;5037463;28;20033;-73
2022/11/15 04:56:38;;;;;;;24.55;22.67;;;;;;;11.03;60.65;100572.50;5033460;28;20041;-71
2022/11/15 04:59:03;;;;;;;23.27;21.73;;;;;;;11.05;60.71;100573.06;5038660;28;20031;-71
2022/11/15 05:01:29;;;;;;;23.70;21.88;;;;;;;11.05;60.74;100573.06;5039284;28;20041;-71
2022/11/15 05:06:38;;;;;;;23.10;21.35;;;;;;;11.07;60.62;100570.13;5040817;28;20462;-71
2022/11/15 05:09:04;;;;;;;23.00;21.38;;;;;;;11.08;60.79;100571.75;5037864;28;20465;-71
2022/11/15 05:11:29;;;;;;;25.42;23.27;;;;;;;11.10;60.73;100566.91;5041194;28;20026;-72
2022/11/15 05:13:55;;;;;;;23.30;21.73;;;;;;;11.11;60.82;100565.84;5036464;28;20120;-73
2022/11/15 05:16:21;;;;;;;22.80;21.15;;;;;;;11.13;60.74;100568.28;5035595;28;20489;-73
2022/11/15 05:18:46;;;;;;;22.33;20.42;;;;;;;11.14;60.93;100567.25;5035338;28;20040;-70
2022/11/15 05:21:14;;;;;;;24.17;22.25;;;;;;;11.15;60.88;100564.28;5041656;28;20575;-70
2022/11/15 05:23:40;;;;;;;23.52;21.27;;;;;;;11.16;60.58;100565.09;5049764;28;20036;-72
2022/11/15 05:26:07;;;;;;;22.60;20.88;;;;;;;11.17;61.02;100569.44;5043849;28;20508;-70
2022/11/15 05:28:34;;;;;;;23.88;22.05;;;;;;;11.18;60.71;100571.88;5055069;28;20036;-71
2022/11/15 05:31:16;;;;;;;23.85;21.77;;;;;;;11.19;60.89;100572.72;5049059;28;20876;-71
2022/11/15 05:33:43;;;;;;;22.90;21.20;;;;;;;11.20;60.91;100568.94;5043210;28;20043;-71
2022/11/15 05:36:21;;;;;;;23.60;21.90;;;;;;;11.20;60.76;100575.16;5041314;28;20067;-71
2022/11/15 05:38:48;;;;;;;21.35;19.85;;;;;;;11.22;60.74;100572.22;5035636;28;20036;-73
2022/11/15 05:41:15;;;;;;;23.23;21.52;;;;;;;11.22;60.88;100572.22;5047802;28;20038;-72
2022/11/15 05:43:42;;;;;;;24.85;22.63;;;;;;;11.23;60.79;100571.13;5042078;28;20112;-72
2022/11/15 05:46:08;;;;;;;22.80;21.20;;;;;;;11.24;61.04;100565.47;5052666;28;20310;-71
2022/11/15 05:48:36;;;;;;;24.33;22.23;;;;;;;11.26;60.96;100574.16;5045748;28;20060;-74
2022/11/15 05:51:03;;;;;;;22.88;21.10;;;;;;;11.27;60.95;100578.50;5044496;28;20481;-72
2022/11/15 05:53:30;;;;;;;24.05;22.02;;;;;;;11.27;60.96;100578.50;5034031;28;20037;-72
2022/11/15 05:55:55;;;;;;;21.80;20.30;;;;;;;11.28;60.98;100579.31;5052867;28;20119;-71
2022/11/15 05:58:20;;;;;;;22.45;20.92;;;;;;;11.30;60.97;100584.47;5050587;28;20029;-73
2022/11/15 06:00:46;;;;;;;24.40;22.45;;;;;;;11.31;60.80;100583.38;5051469;28;20036;-73
2022/11/15 06:03:13;;;;;;;24.20;22.50;;;;;;;11.32;60.85;100591.25;5067629;28;20067;-74
2022/11/15 06:05:39;;;;;;;24.58;22.83;;;;;;;11.33;60.81;100586.66;5051557;28;20037;-74
2022/11/15 06:08:05;;;;;;;22.55;20.98;;;;;;;11.34;60.77;100582.88;5064216;28;20028;-73
2022/11/15 06:10:30;;;;;;;24.85;22.92;;;;;;;11.35;60.94;100577.22;5045166;28;20029;-74
2022/11/15 06:13:05;;;;;;;23.23;21.58;;;;;;;11.36;61.04;100580.75;5043882;28;20367;-71
2022/11/15 06:15:33;;;;;;;22.85;21.17;;;;;;;11.36;60.97;100584.25;5038381;28;20041;-73
2022/11/15 06:17:59;;;;;;;22.37;20.57;;;;;;;11.37;61.13;100585.09;5047126;28;20061;-71
2022/11/15 06:20:25;;;;;;;23.15;21.33;;;;;;;11.38;60.99;100592.13;5049082;28;20106;-72
2022/11/15 06:22:50;;;;;;;24.35;22.52;;;;;;;11.40;60.80;100590.00;5031752;28;20036;-74
2022/11/15 06:25:16;;;;;;;23.85;22.00;;;;;;;11.40;60.92;100593.53;5046830;28;20068;-72
2022/11/15 06:27:41;;;;;;;23.20;21.17;;;;;;;11.41;60.93;100595.16;5049322;28;20037;-72
2022/11/15 06:30:07;;;;;;;23.20;21.50;;;;;;;11.42;61.18;100594.09;5050820;28;20048;-71
2022/11/15 06:32:32;;;;;;;23.27;21.58;;;;;;;11.42;61.04;100593.28;5038156;28;20445;-72
2022/11/15 06:34:58;;;;;;;23.65;21.95;;;;;;;11.44;61.00;100596.53;5046880;28;20147;-71
2022/11/15 06:37:23;;;;;;;22.58;21.08;;;;;;;11.45;60.85;100598.19;5047644;28;20480;-73
2022/11/15 06:39:48;;;;;;;22.63;20.95;;;;;;;11.45;61.07;100601.69;5043210;28;20920;-71
2022/11/15 06:42:14;;;;;;;23.42;21.52;;;;;;;11.46;60.68;100602.50;5031575;28;20033;-71
2022/11/15 06:44:39;;;;;;;23.63;21.90;;;;;;;11.48;60.94;100603.88;5042297;28;20090;-71
2022/11/15 06:47:05;;;;;;;22.42;20.75;;;;;;;11.47;60.94;100604.97;5049295;28;20042;-75
2022/11/15 06:49:30;;;;;;;24.10;22.40;;;;;;;11.49;61.03;100607.44;5048131;28;20068;-73
2022/11/15 06:51:55;;;;;;;25.05;23.23;;;;;;;11.50;60.87;100609.06;5039805;28;20478;-73
2022/11/15 06:54:21;;;;;;;23.27;21.67;;;;;;;11.50;60.91;100614.47;5041467;28;20385;-74
2022/11/15 06:56:46;;;;;;;23.83;21.73;;;;;;;11.52;61.09;100617.75;5036164;28;20029;-72
2022/11/15 06:59:12;;;;;;;23.48;21.75;;;;;;;11.52;60.81;100603.41;5046700;28;20069;-73
2022/11/15 07:01:37;;;;;;;24.25;22.45;;;;;;;11.54;61.01;100612.91;5046951;28;20037;-73
2022/11/15 07:04:02;;;;;;;23.23;21.65;;;;;;;11.54;60.81;100612.91;5051343;28;20116;-73
2022/11/15 07:06:28;;;;;;;24.88;23.08;;;;;;;11.54;61.16;100610.22;5039471;28;20033;-72
2022/11/15 07:08:53;;;;;;;23.77;22.05;;;;;;;11.55;60.97;100603.72;5043313;28;20688;-72
2022/11/15 07:11:18;;;;;;;24.33;22.63;;;;;;;11.56;61.05;100613.44;5042424;28;20420;-72
2022/11/15 07:13:44;;;;;;;25.60;23.67;;;;;;;11.57;61.11;100612.41;5040873;28;20485;-71
2022/11/15 07:16:10;;;;;;;21.40;19.95;;;;;;;11.58;61.03;100616.72;5047390;28;20040;-72
2022/11/15 07:18:39;;;;;;;23.33;21.60;;;;;;;11.58;60.92;100611.31;5049511;28;20040;-76
2022/11/15 07:21:07;;;;;;;22.83;21.27;;;;;;;11.60;61.04;100619.19;5041847;28;20060;-72
2022/11/15 07:23:33;;;;;;;23.90;22.25;;;;;;;11.60;60.92;100616.50;5035786;28;20041;-72
2022/11/15 07:25:59;;;;;;;22.75;21.20;;;;;;;11.61;61.07;100618.91;5041869;28;20041;-72
2022/11/15 07:28:25;;;;;;;22.90;21.30;;;;;;;11.62;61.14;100615.16;5040891;28;20473;-72
2022/11/15 07:30:51;;;;;;;24.27;22.48;;;;;;;11.62;61.17;100612.47;5042734;28;20128;-72
2022/11/15 07:33:16;;;;;;;23.60;21.85;;;;;;;11.63;61.02;100615.97;5033743;28;20448;-71
2022/11/15 07:35:42;;;;;;;23.25;21.65;;;;;;;11.64;61.32;100617.59;5032700;28;20059;-73
2022/11/15 07:38:08;;;;;;;22.48;20.98;;;;;;;11.65;61.11;100620.06;5032322;28;20029;-71
2022/11/15 07:40:33;;;;;;;23.70;22.13;;;;;;;11.65;60.96;100625.47;5043782;28;20102;-74
2022/11/15 07:43:04;;;;;;;21.55;20.08;;;;;;;11.65;61.00;100622.78;5046466;28;20458;-72
2022/11/15 07:45:29;;;;;;;22.48;20.88;;;;;;;11.67;60.93;100628.75;5050196;28;20033;-72
2022/11/15 07:47:56;;;;;;;24.13;22.35;;;;;;;11.66;61.33;100632.50;5065820;28;20036;-72
2022/11/15 07:50:23;;;;;;;23.42;21.83;;;;;;;11.68;60.94;100634.97;5047465;28;20500;-72
2022/11/15 07:52:56;;;;;;;24.13;22.45;;;;;;;11.69;61.05;100636.59;5042499;28;20037;-73
2022/11/15 07:55:23;;;;;;;23.50;21.92;;;;;;;11.69;60.95;100631.19;5050521;28;20108;-73
2022/11/15 07:57:48;;;;;;;23.65;21.75;;;;;;;11.69;61.08;100632.03;5045808;28;20067;-74
2022/11/15 08:00:14;;;;;;;23.25;21.38;;;;;;;11.70;60.97;100628.25;5047407;28;20033;-72
2022/11/15 08:02:40;;;;;;;22.83;21.30;;;;;;;11.70;61.10;100622.81;5036810;28;20034;-72
2022/11/15 08:05:06;;;;;;;22.48;20.73;;;;;;;11.72;61.17;100613.63;5046925;28;20033;-72
2022/11/15 08:07:31;;;;;;;22.73;21.13;;;;;;;11.73;61.31;100612.56;5054237;28;20068;-71
2022/11/15 08:09:58;;;;;;;23.85;22.10;;;;;;;11.73;61.01;100610.69;5044142;28;20045;-71
2022/11/15 08:12:23;;;;;;;23.75;21.98;;;;;;;11.75;61.07;100607.72;5051654;28;20466;-71
2022/11/15 08:14:49;;;;;;;24.08;22.17;;;;;;;11.75;61.05;100605.84;5051471;28;20121;-72
2022/11/15 08:17:14;;;;;;;22.33;20.83;;;;;;;11.75;60.93;100605.03;5056541;28;20063;-71
2022/11/15 08:19:40;;;;;;;23.08;21.40;;;;;;;11.76;61.09;100602.03;5061257;28;20044;-74
2022/11/15 08:22:05;;;;;;;23.08;21.40;;;;;;;11.76;61.27;100604.75;5048626;28;20029;-72
2022/11/15 08:24:30;;;;;;;22.73;20.98;;;;;;;11.77;61.04;100606.41;5056208;28;20074;-74
2022/11/15 08:26:56;;;;;;;24.48;22.67;;;;;;;11.77;61.00;100606.41;5049691;28;20073;-73
2022/11/15 08:29:21;;;;;;;23.15;21.35;;;;;;;11.79;61.20;100606.13;5051194;28;20029;-73
2022/11/15 08:31:46;;;;;;;26.13;24.02;;;;;;;11.80;61.19;100605.09;5045951;28;20045;-72
2022/11/15 08:34:12;;;;;;;22.45;20.73;;;;;;;11.80;61.19;100599.66;5040131;28;20037;-72
2022/11/15 08:36:37;;;;;;;25.33;23.52;;;;;;;11.80;61.10;100597.78;5047245;28;20029;-73
2022/11/15 08:39:03;;;;;;;22.15;20.65;;;;;;;11.81;60.88;100595.88;5048406;28;20037;-75
2022/11/15 08:41:33;;;;;;;24.08;22.35;;;;;;;11.81;61.03;100598.59;5040318;28;20052;-71
2022/11/15 08:43:58;;;;;;;23.73;21.88;;;;;;;11.82;60.94;100592.13;5040283;28;20025;-71
2022/11/15 08:46:24;;;;;;;22.88;21.27;;;;;;;11.82;61.01;100589.41;5048487;28;20041;-72
2022/11/15 08:48:49;;;;;;;24.90;23.20;;;;;;;11.83;61.26;100581.03;5046018;28;20082;-73
2022/11/15 08:51:15;;;;;;;22.83;21.33;;;;;;;11.84;61.01;100576.41;5048722;28;20028;-74
2022/11/15 08:53:41;;;;;;;23.08;21.13;;;;;;;11.84;61.19;100566.44;5046112;28;20029;-71
2022/11/15 08:56:11;;;;;;;23.30;21.73;;;;;;;11.84;61.20;100561.03;5041523;28;20417;-74
2022/11/15 08:58:37;;;;;;;23.95;22.30;;;;;;;11.84;61.39;100569.13;5046026;28;20465;-73
2022/11/15 09:01:03;;;;;;;23.48;22.00;;;;;;;11.85;61.13;100568.06;5043191;28;20044;-72
2022/11/15 09:03:29;;;;;;;21.95;20.45;;;;;;;11.86;61.07;100560.75;5042796;28;20048;-71
2022/11/15 09:05:59;;;;;;;23.40;21.83;;;;;;;11.87;61.27;100554.31;5046017;28;20044;-73
2022/11/15 09:08:28;;;;;;;22.27;20.83;;;;;;;11.88;61.32;100561.34;5038863;28;20477;-74
2022/11/15 09:10:54;;;;;;;24.25;22.58;;;;;;;11.88;61.41;100553.22;5049526;28;20397;-72
2022/11/15 09:13:22;;;;;;;21.35;19.88;;;;;;;11.88;61.34;100550.53;5050717;28;20500;-73
2022/11/15 09:15:47;;;;;;;24.58;22.38;;;;;;;11.90;61.08;100560.00;5045887;28;20029;-72
2022/11/15 09:18:13;;;;;;;22.55;21.25;;;;;;;11.91;61.45;100552.72;5050296;28;20028;-74
2022/11/15 09:20:38;;;;;;;22.83;21.33;;;;;;;11.92;61.44;100543.53;5050068;28;20041;-73
2022/11/15 09:23:05;;;;;;;22.45;20.83;;;;;;;11.93;61.52;100549.75;5043645;28;20120;-72
2022/11/15 09:25:31;;;;;;;22.15;20.45;;;;;;;11.93;61.38;100539.75;5046152;28;20433;-76
2022/11/15 09:27:56;;;;;;;24.13;22.58;;;;;;;11.94;61.51;100546.78;5039737;28;20039;-74
2022/11/15 09:30:23;;;;;;;24.05;22.55;;;;;;;11.95;61.35;100542.19;5047181;28;20096;-72
2022/11/15 09:32:48;;;;;;;22.83;21.30;;;;;;;11.96;61.40;100543.81;5050989;28;20048;-71
2022/11/15 09:35:14;;;;;;;21.90;20.50;;;;;;;11.96;61.58;100538.41;5052150;28;20045;-72
2022/11/15 09:37:39;;;;;;;22.95;21.48;;;;;;;11.97;61.58;100531.91;5050121;28;20033;-72
2022/11/15 09:40:08;;;;;;;23.73;21.98;;;;;;;11.97;61.60;100540.88;5051168;28;20021;-74
2022/11/15 09:42:49;;;;;;;21.27;19.92;;;;;;;11.98;61.54;100537.06;5034236;28;20042;-73
2022/11/15 09:45:28;;;;;;;21.85;20.27;;;;;;;11.98;61.65;100538.97;5047375;28;20043;-72
2022/11/15 09:48:24;;;;;;;23.98;22.38;;;;;;;11.98;61.42;100547.09;5048436;28;20037;-72
2022/11/15 09:50:53;;;;;;;20.75;19.52;;;;;;;11.98;61.61;100545.19;5038038;28;20039;-77
2022/11/15 09:53:50;;;;;;;19.95;18.73;;;;;;;11.98;61.52;100542.50;5041646;28;20413;-73
2022/11/15 09:56:26;;;;;;;20.90;19.35;;;;;;;11.99;61.66;100532.47;5048041;28;20071;-71
2022/11/15 09:59:21;;;;;;;22.33;20.90;;;;;;;11.99;61.48;100532.47;5047918;28;19956;-72
2022/11/15 10:01:57;;;;;;;20.88;19.65;;;;;;;11.98;61.50;100538.97;5047579;28;20590;-73
2022/11/15 10:04:23;;;;;;;21.42;20.23;;;;;;;11.99;61.57;100548.72;5042911;28;20104;-73
2022/11/15 10:06:56;;;;;;;21.13;19.83;;;;;;;12.00;61.38;100542.25;5031573;28;20494;-73
2022/11/15 10:09:35;;;;;;;21.00;19.65;;;;;;;12.00;61.69;100548.47;5032412;28;20033;-72
2022/11/15 10:12:01;;;;;;;20.95;19.65;;;;;;;12.02;61.52;100542.78;5050424;28;20060;-73
2022/11/15 10:14:29;;;;;;;21.67;20.27;;;;;;;12.02;61.68;100531.94;5049050;28;20446;-71
2022/11/15 10:17:22;;;;;;;21.90;20.55;;;;;;;12.03;61.72;100529.00;5033835;28;20037;-72
2022/11/15 10:19:53;;;;;;;21.55;20.25;;;;;;;12.03;61.74;100518.19;5039614;28;20388;-72
2022/11/15 10:22:29;;;;;;;21.70;20.45;;;;;;;12.04;61.78;100506.25;5033520;28;20120;-72
2022/11/15 10:25:28;;;;;;;21.52;20.27;;;;;;;12.04;61.71;100503.56;5046955;28;20075;-74
2022/11/15 10:28:00;;;;;;;19.73;18.70;;;;;;;12.05;61.40;100505.19;5036886;28;20047;-73
2022/11/15 10:31:04;;;;;;;20.40;19.17;;;;;;;12.05;61.57;100505.19;5052728;28;20055;-71
2022/11/15 10:33:33;;;;;;;20.60;19.40;;;;;;;12.07;61.40;100496.81;5033208;28;20051;-73
2022/11/15 10:36:17;;;;;;;22.75;21.42;;;;;;;12.06;61.59;100498.69;5046581;28;20481;-72
2022/11/15 10:38:49;;;;;;;21.48;20.02;;;;;;;12.08;61.65;100501.97;5049444;28;20064;-71
2022/11/15 10:41:19;;;;;;;20.15;18.95;;;;;;;12.08;61.62;100493.03;5047731;28;20040;-70
2022/11/15 10:44:00;;;;;;;20.42;19.33;;;;;;;12.07;61.54;100481.41;5049674;28;20064;-72
2022/11/15 10:46:26;;;;;;;20.60;19.13;;;;;;;12.09;61.83;100478.41;5047425;28;20491;-71
2022/11/15 10:48:51;;;;;;;20.85;19.65;;;;;;;12.10;61.69;100480.06;5039962;28;20037;-70
2022/11/15 10:51:29;;;;;;;21.77;20.48;;;;;;;12.11;61.72;100470.84;5046576;28;20071;-71
2022/11/15 10:53:59;;;;;;;21.23;20.02;;;;;;;12.11;61.64;100471.66;5046468;28;20032;-72
2022/11/15 10:56:26;;;;;;;20.85;19.65;;;;;;;12.13;61.63;100476.84;5050985;28;20060;-73
2022/11/15 10:58:55;;;;;;;20.75;19.45;;;;;;;12.14;61.70;100467.63;5042005;28;20067;-72
2022/11/15 11:01:27;;;;;;;20.40;19.30;;;;;;;12.14;61.50;100456.78;5040919;28;20033;-73
2022/11/15 11:04:02;;;;;;;20.58;19.48;;;;;;;12.15;62.01;100446.81;5049937;28;20033;-71
2022/11/15 11:06:29;;;;;;;20.20;19.13;;;;;;;12.15;61.65;100444.09;5041181;28;20482;-73
2022/11/15 11:08:58;;;;;;;20.58;19.48;;;;;;;12.15;61.69;100434.06;5048559;28;20029;-71
2022/11/15 11:11:24;;;;;;;21.23;19.92;;;;;;;12.17;61.58;100437.34;5048895;28;20067;-72
2022/11/15 11:13:50;;;;;;;21.73;20.27;;;;;;;12.18;61.79;100421.91;5044953;28;20049;-71
2022/11/15 11:16:33;;;;;;;22.20;20.80;;;;;;;12.19;61.70;100418.91;5031805;28;20030;-72
2022/11/15 11:19:37;;;;;;;20.05;19.05;;;;;;;12.19;61.68;100415.41;5043966;28;20090;-71
2022/11/15 11:22:11;;;;;;;21.98;20.50;;;;;;;12.18;61.58;100417.31;5048516;28;20041;-73
2022/11/15 11:25:01;;;;;;;20.33;19.08;;;;;;;12.18;61.64;100406.47;5040356;28;20493;-72
2022/11/15 11:27:54;;;;;;;20.73;19.63;;;;;;;12.20;61.70;100401.63;5042877;28;20458;-73
2022/11/15 11:30:50;;;;;;;20.00;19.00;;;;;;;12.18;61.53;100401.06;5053990;28;20033;-71